Time;durP1;ratioP1;P1;durP2;ratioP2;P2;SDS_P1;SDS_P2;PMS_P1;PMS_P2;Temp;Humidity;BMP_temperature;BMP_pressure;BME280_temperature;BME280_humidity;BME280_pressure;Samples;Min_cycle;Max_cycle;Signal;HPM_P1;HPM_P2
2022/01/25 00:08:53;;;;;;;11.95;7.47;;;;;;;5.13;76.20;102438.23;1791199;79;21024;-81
2022/01/25 00:27:41;;;;;;;9.23;6.00;;;;;;;5.23;76.34;102446.83;1762151;80;21139;-80
2022/01/25 00:30:21;;;;;;;7.40;5.55;;;;;;;5.24;76.41;102444.74;1761322;80;21053;-80
2022/01/25 00:32:28;;;;;;;9.90;5.78;;;;;;;5.27;76.46;102432.30;1790480;80;22602;-80
2022/01/25 00:34:55;;;;;;;8.33;6.00;;;;;;;5.28;76.44;102431.92;1790969;80;21078;-80
2022/01/25 00:37:22;;;;;;;9.13;6.10;;;;;;;5.26;76.42;102424.88;1790973;79;21064;-80
2022/01/25 00:39:51;;;;;;;9.60;5.92;;;;;;;5.24;76.37;102419.04;1790834;79;21014;-79
2022/01/25 00:42:17;;;;;;;8.08;5.87;;;;;;;5.22;76.41;102415.41;1790945;80;21315;-80
2022/01/25 00:44:47;;;;;;;7.03;6.17;;;;;;;5.21;76.41;102416.19;1791021;80;21764;-80
2022/01/25 00:47:15;;;;;;;8.65;5.80;;;;;;;5.20;76.43;102405.22;1791092;80;21033;-80
2022/01/25 00:49:43;;;;;;;7.03;5.75;;;;;;;5.21;76.46;102404.03;1791084;80;21687;-80
2022/01/25 00:52:23;;;;;;;8.05;5.17;;;;;;;5.22;76.43;102394.12;1761793;80;21654;-80
2022/01/25 00:54:46;;;;;;;7.65;5.65;;;;;;;5.23;76.46;102399.83;1791383;79;21681;-80
2022/01/25 00:57:14;;;;;;;8.43;5.53;;;;;;;5.24;76.50;102402.97;1791506;80;21754;-80
2022/01/25 00:59:41;;;;;;;6.83;5.30;;;;;;;5.24;76.52;102394.23;1769813;80;21032;-81
2022/01/25 01:02:11;;;;;;;7.62;5.55;;;;;;;5.27;76.53;102386.61;1763826;80;22259;-80
2022/01/25 01:04:40;;;;;;;7.08;5.53;;;;;;;5.28;76.50;102391.05;1732360;82;21085;-80
2022/01/25 01:07:08;;;;;;;8.33;4.58;;;;;;;5.30;76.53;102389.86;1763899;78;21498;-80
2022/01/25 01:09:37;;;;;;;7.60;5.30;;;;;;;5.29;76.44;102399.37;1764196;81;21773;-81
2022/01/25 01:12:09;;;;;;;8.33;5.12;;;;;;;5.29;76.40;102395.86;1732308;81;21121;-80
2022/01/25 01:31:11;;;;;;;9.70;5.25;;;;;;;5.23;76.52;102387.19;1763856;81;21164;-81
2022/01/25 01:34:38;;;;;;;7.75;5.58;;;;;;;5.21;76.56;102383.56;1732915;81;21110;-80
2022/01/25 01:43:55;;;;;;;11.22;5.35;;;;;;;5.20;76.68;102377.81;1763735;81;21051;-81
2022/01/25 01:48:54;;;;;;;10.00;5.40;;;;;;;5.20;76.74;102381.36;1790694;80;22705;-81
2022/01/25 01:51:33;;;;;;;10.20;5.50;;;;;;;5.19;76.82;102380.83;1790530;79;21550;-80
2022/01/25 01:53:49;;;;;;;8.03;5.47;;;;;;;5.21;76.89;102383.56;1764898;79;21029;-80
2022/01/25 01:56:16;;;;;;;10.68;6.17;;;;;;;5.24;76.98;102394.23;1763887;81;21156;-80
2022/01/25 01:58:43;;;;;;;8.00;5.85;;;;;;;5.25;77.00;102390.44;1731709;81;21084;-81
2022/01/25 02:01:16;;;;;;;7.45;5.62;;;;;;;5.26;77.05;102383.09;1763710;81;21753;-80
2022/01/25 02:03:46;;;;;;;9.05;5.95;;;;;;;5.26;77.05;102375.27;1731622;82;21637;-80
2022/01/25 02:06:14;;;;;;;8.35;6.10;;;;;;;5.25;77.08;102361.72;1763355;79;21614;-80
2022/01/25 02:08:43;;;;;;;9.85;6.45;;;;;;;5.25;77.11;102359.48;1731755;81;21058;-81
2022/01/25 02:11:13;;;;;;;11.73;6.37;;;;;;;5.22;77.12;102358.87;1731450;81;21088;-80
2022/01/25 02:13:40;;;;;;;9.15;6.15;;;;;;;5.18;77.14;102363.38;1731701;81;21894;-81
2022/01/25 02:16:10;;;;;;;10.03;6.53;;;;;;;5.16;77.25;102362.73;1763604;81;21661;-80
2022/01/25 02:24:07;;;;;;;12.85;6.90;;;;;;;5.11;77.58;102357.19;1790897;80;21032;-81
2022/01/25 02:26:34;;;;;;;11.30;6.70;;;;;;;5.09;77.54;102352.26;1790807;80;22485;-81
2022/01/25 02:29:01;;;;;;;10.18;6.80;;;;;;;5.09;77.67;102352.63;1763685;81;21044;-81
2022/01/25 02:31:28;;;;;;;9.10;6.65;;;;;;;5.07;77.72;102348.63;1763823;81;21324;-80
2022/01/25 02:33:54;;;;;;;13.53;6.72;;;;;;;5.08;77.80;102339.09;1732240;82;21049;-80
2022/01/25 02:36:27;;;;;;;12.63;7.12;;;;;;;5.09;77.89;102339.21;1764021;81;21060;-79
2022/01/25 02:38:55;;;;;;;10.63;7.00;;;;;;;5.08;77.87;102334.77;1755419;81;21762;-80
2022/01/25 02:41:23;;;;;;;11.63;6.97;;;;;;;5.06;77.94;102321.60;1763776;81;21048;-80
2022/01/25 02:43:51;;;;;;;10.13;6.90;;;;;;;5.10;78.10;102327.05;1764220;81;21173;-80
2022/01/25 02:48:29;;;;;;;9.63;6.80;;;;;;;5.11;78.08;102321.05;1732565;82;21059;-80
2022/01/25 02:49:04;;;;;;;9.00;7.47;;;;;;;5.10;78.08;102316.20;1762666;80;21052;-81
2022/01/25 02:51:34;;;;;;;16.12;7.42;;;;;;;5.11;78.14;102315.84;1731676;82;21772;-80
2022/01/25 02:54:01;;;;;;;10.45;7.05;;;;;;;5.11;78.19;102308.91;1763434;81;21040;-80
2022/01/25 02:56:28;;;;;;;10.38;7.87;;;;;;;5.13;78.20;102311.63;1731423;82;21068;-80
2022/01/25 02:59:00;;;;;;;15.38;8.30;;;;;;;5.14;78.26;102301.27;1783104;79;21603;-82
2022/01/25 03:01:24;;;;;;;12.23;7.85;;;;;;;5.12;78.19;102299.36;1733387;81;22130;-81
2022/01/25 03:03:50;;;;;;;11.30;7.40;;;;;;;5.12;78.26;102299.36;1755896;81;21774;-81
2022/01/25 03:06:18;;;;;;;13.10;8.08;;;;;;;5.12;78.30;102301.56;1734338;82;21102;-81
2022/01/25 03:08:45;;;;;;;12.20;7.83;;;;;;;5.12;78.40;102293.73;1755878;81;21096;-80
2022/01/25 03:11:14;;;;;;;9.95;6.78;;;;;;;5.13;78.40;102303.39;1778481;79;21589;-81
2022/01/25 03:13:55;;;;;;;12.35;7.95;;;;;;;5.13;78.43;102302.08;1734287;82;21049;-81
2022/01/25 03:16:33;;;;;;;11.95;7.53;;;;;;;5.14;78.50;102300.38;1755602;80;21823;-81
2022/01/25 03:19:00;;;;;;;13.75;7.70;;;;;;;5.16;78.51;102303.63;1733715;82;21563;-81
2022/01/25 03:23:56;;;;;;;12.15;7.78;;;;;;;5.15;78.55;102290.05;1734254;81;21174;-81
2022/01/25 03:26:26;;;;;;;14.90;6.95;;;;;;;5.14;78.59;102288.22;1755769;80;21185;-81
2022/01/25 03:28:58;;;;;;;11.95;7.53;;;;;;;5.12;78.60;102283.29;1733942;81;21796;-81
2022/01/25 03:31:25;;;;;;;13.90;6.80;;;;;;;5.11;78.67;102276.27;1755473;81;21040;-81
2022/01/25 03:33:51;;;;;;;10.45;6.92;;;;;;;5.11;78.71;102267.14;1734315;82;21061;-81
2022/01/25 03:36:18;;;;;;;9.53;6.67;;;;;;;5.10;78.76;102262.70;1756001;80;21048;-81
2022/01/25 03:38:45;;;;;;;10.90;6.60;;;;;;;5.13;78.83;102268.16;1734462;81;21161;-80
2022/01/25 03:41:16;;;;;;;8.73;6.53;;;;;;;5.16;78.77;102273.98;1755794;81;22401;-81
2022/01/25 03:43:43;;;;;;;9.03;6.22;;;;;;;5.15;78.82;102273.08;1734199;81;21065;-81
2022/01/25 03:46:22;;;;;;;6.92;5.25;;;;;;;5.16;78.86;102273.61;1754961;81;21048;-81
2022/01/25 03:51:07;;;;;;;9.35;6.12;;;;;;;5.17;78.90;102276.70;1755195;81;21125;-80
2022/01/25 03:53:37;;;;;;;9.25;6.95;;;;;;;5.17;78.94;102270.59;1733826;82;21755;-81
2022/01/25 03:56:03;;;;;;;8.48;5.55;;;;;;;5.15;78.93;102280.91;1755139;80;21061;-81
2022/01/25 03:58:30;;;;;;;7.95;5.85;;;;;;;5.16;79.05;102276.59;1734013;82;21092;-81
2022/01/25 04:00:56;;;;;;;7.75;5.35;;;;;;;5.16;79.05;102285.72;1755031;78;21128;-81
2022/01/25 04:03:31;;;;;;;7.05;4.87;;;;;;;5.16;79.09;102290.57;1733455;82;21065;-81
2022/01/25 04:05:53;;;;;;;6.80;5.03;;;;;;;5.14;79.11;102284.71;1754043;80;21804;-81
2022/01/25 04:08:23;;;;;;;8.80;5.05;;;;;;;5.15;79.16;102278.30;1733973;82;22414;-81
2022/01/25 04:10:49;;;;;;;7.78;5.28;;;;;;;5.15;79.24;102274.38;1755511;80;21581;-81
2022/01/25 04:13:16;;;;;;;8.03;5.45;;;;;;;5.19;79.32;102261.16;1733929;82;21073;-81
2022/01/25 04:15:46;;;;;;;6.47;5.12;;;;;;;5.19;79.29;102256.83;1755920;80;21060;-80
2022/01/25 04:20:41;;;;;;;8.98;5.33;;;;;;;5.17;79.21;102245.38;1755454;81;21293;-80
2022/01/25 04:25:53;;;;;;;7.72;4.95;;;;;;;5.17;79.37;102248.39;1755914;81;21107;-81
2022/01/25 04:28:19;;;;;;;6.87;4.72;;;;;;;5.20;79.37;102248.59;1734457;82;21532;-80
2022/01/25 04:30:46;;;;;;;8.45;4.20;;;;;;;5.20;79.37;102240.77;1755327;81;21746;-80
2022/01/25 04:33:25;;;;;;;9.13;5.15;;;;;;;5.21;79.40;102234.76;1733386;82;21104;-81
2022/01/25 04:49:41;;;;;;;9.05;4.42;;;;;;;5.28;79.42;102238.31;1733489;81;22186;-81
2022/01/25 04:52:13;;;;;;;6.05;4.20;;;;;;;5.29;79.43;102237.91;1755129;80;21099;-82
2022/01/25 04:59:48;;;;;;;10.50;6.92;;;;;;;5.29;79.51;102242.72;1742882;80;21562;-79
2022/01/25 05:02:14;;;;;;;15.90;12.20;;;;;;;5.32;79.49;102236.83;1779579;78;21504;-78
2022/01/25 05:04:44;;;;;;;11.05;7.20;;;;;;;5.33;79.52;102228.17;1778189;79;21063;-78
2022/01/25 05:07:25;;;;;;;7.30;4.55;;;;;;;5.35;79.50;102235.34;1776818;79;21066;-77
2022/01/25 05:09:42;;;;;;;9.03;4.40;;;;;;;5.35;79.48;102234.03;1777519;79;22436;-79
2022/01/25 05:12:12;;;;;;;6.72;4.78;;;;;;;5.38;79.53;102238.55;1749248;80;21129;-79
2022/01/25 05:14:59;;;;;;;7.95;4.72;;;;;;;5.39;79.57;102239.07;1778220;80;21093;-77
2022/01/25 05:17:41;;;;;;;11.12;5.08;;;;;;;5.42;79.62;102235.34;1753156;80;21105;-78
2022/01/25 05:22:26;;;;;;;7.08;4.50;;;;;;;5.45;79.53;102229.94;1777862;80;21546;-77
2022/01/25 05:24:52;;;;;;;5.72;4.10;;;;;;;5.48;79.52;102234.87;1777974;80;21050;-77
2022/01/25 05:27:22;;;;;;;6.80;3.95;;;;;;;5.47;79.56;102242.22;1778287;80;21081;-77
2022/01/25 05:29:49;;;;;;;6.00;4.03;;;;;;;5.48;79.61;102244.94;1777488;79;21116;-73
2022/01/25 05:32:18;;;;;;;5.83;3.67;;;;;;;5.49;79.61;102251.95;1778333;80;20991;-79
2022/01/25 05:34:45;;;;;;;8.35;5.08;;;;;;;5.50;79.60;102248.56;1778245;80;21821;-79
2022/01/25 05:37:12;;;;;;;7.55;4.70;;;;;;;5.50;79.64;102244.64;1778268;80;21555;-78
2022/01/25 05:39:42;;;;;;;8.65;4.45;;;;;;;5.50;79.62;102234.20;1778278;80;21077;-80
2022/01/25 05:42:45;;;;;;;7.55;5.42;;;;;;;5.48;79.57;102227.03;1777863;80;21889;-76
2022/01/25 05:47:26;;;;;;;6.20;4.40;;;;;;;5.48;79.68;102219.20;1778090;80;21743;-75
2022/01/25 05:49:50;;;;;;;8.85;4.78;;;;;;;5.49;79.65;102207.97;1777246;80;21053;-75
2022/01/25 05:52:17;;;;;;;7.03;4.62;;;;;;;5.49;79.66;102204.05;1778145;80;21068;-74
2022/01/25 05:54:47;;;;;;;9.50;5.17;;;;;;;5.51;79.71;102209.87;1777794;80;21065;-74
2022/01/25 05:57:13;;;;;;;9.05;4.37;;;;;;;5.52;79.69;102208.16;1777613;80;21058;-78
2022/01/25 05:59:45;;;;;;;5.72;4.10;;;;;;;5.52;79.66;102205.17;1773580;80;22503;-77
2022/01/25 06:02:17;;;;;;;7.12;4.25;;;;;;;5.54;79.67;102202.27;1757273;80;21104;-78
2022/01/25 06:04:41;;;;;;;6.33;4.20;;;;;;;5.57;79.64;102198.53;1759766;80;21713;-78
2022/01/25 06:07:07;;;;;;;5.12;3.62;;;;;;;5.59;79.66;102196.95;1739674;81;21281;-77
2022/01/25 06:09:34;;;;;;;6.80;3.50;;;;;;;5.61;79.62;102204.88;1766021;80;21072;-77
2022/01/25 06:12:01;;;;;;;5.22;3.25;;;;;;;5.62;79.62;102201.47;1802652;79;22485;-77
2022/01/25 06:14:27;;;;;;;6.97;3.90;;;;;;;5.62;79.54;102206.29;1802764;79;21048;-77
2022/01/25 06:16:54;;;;;;;4.03;3.30;;;;;;;5.62;79.53;102212.82;1802854;79;21013;-77
2022/01/25 06:19:21;;;;;;;5.28;3.40;;;;;;;5.61;79.49;102212.34;1797545;79;21045;-78
2022/01/25 06:21:47;;;;;;;6.55;4.00;;;;;;;5.60;79.50;102210.91;1802685;79;21052;-77
2022/01/25 06:24:14;;;;;;;5.28;3.72;;;;;;;5.60;79.54;102219.65;1797495;79;22556;-77
2022/01/25 06:26:42;;;;;;;6.15;3.90;;;;;;;5.61;79.53;102212.34;1796614;79;21057;-77
2022/01/25 06:29:11;;;;;;;6.37;3.17;;;;;;;5.64;79.59;102211.62;1797299;79;21065;-77
2022/01/25 06:31:37;;;;;;;5.62;3.92;;;;;;;5.66;79.53;102216.55;1802809;79;21033;-77
2022/01/25 06:34:04;;;;;;;4.83;3.60;;;;;;;5.65;79.49;102214.76;1797681;79;21048;-77
2022/01/25 06:36:32;;;;;;;5.92;3.77;;;;;;;5.64;79.51;102206.41;1797086;78;21180;-77
2022/01/25 06:38:59;;;;;;;5.53;3.55;;;;;;;5.64;79.50;102205.98;1797539;79;21072;-77
2022/01/25 06:41:28;;;;;;;5.83;4.25;;;;;;;5.64;79.57;102203.37;1775054;79;21052;-77
2022/01/25 06:43:56;;;;;;;7.83;4.85;;;;;;;5.66;79.56;102200.88;1775057;79;21092;-77
2022/01/25 06:46:23;;;;;;;6.72;4.37;;;;;;;5.67;79.63;102203.08;1802923;78;21017;-77
2022/01/25 06:48:49;;;;;;;7.55;3.47;;;;;;;5.68;79.62;102204.50;1802932;79;21701;-77
2022/01/25 06:51:16;;;;;;;4.03;3.33;;;;;;;5.68;79.63;102203.19;1797503;79;21166;-76
2022/01/25 06:53:43;;;;;;;6.10;4.12;;;;;;;5.68;79.67;102199.68;1797774;79;21606;-78
2022/01/25 06:56:09;;;;;;;5.28;3.72;;;;;;;5.69;79.70;102198.48;1797803;79;21140;-78
2022/01/25 06:58:36;;;;;;;6.78;4.30;;;;;;;5.70;79.70;102198.97;1797701;79;21541;-78
2022/01/25 07:01:06;;;;;;;7.00;3.83;;;;;;;5.69;79.70;102193.27;1787520;78;21740;-77
2022/01/25 07:03:31;;;;;;;5.78;3.72;;;;;;;5.69;79.72;102193.27;1778137;80;21207;-77
2022/01/25 07:05:58;;;;;;;4.87;4.00;;;;;;;5.69;79.73;102188.03;1778862;80;21034;-78
2022/01/25 07:08:29;;;;;;;6.00;4.12;;;;;;;5.70;79.82;102183.70;1778337;80;21778;-77
2022/01/25 07:10:56;;;;;;;8.28;4.30;;;;;;;5.74;79.92;102185.72;1778858;80;20986;-78
2022/01/25 07:13:22;;;;;;;8.70;5.12;;;;;;;5.76;79.92;102181.50;1778773;80;21728;-78
2022/01/25 07:15:49;;;;;;;8.68;4.95;;;;;;;5.76;79.87;102186.34;1778859;80;21054;-78
2022/01/25 07:18:19;;;;;;;7.00;4.65;;;;;;;5.76;79.87;102189.34;1778738;80;21078;-77
2022/01/25 07:20:45;;;;;;;9.38;4.65;;;;;;;5.76;79.89;102181.50;1779012;80;21552;-78
2022/01/25 07:23:13;;;;;;;8.83;4.97;;;;;;;5.78;79.96;102178.20;1778919;80;21570;-78
2022/01/25 07:25:39;;;;;;;11.10;4.90;;;;;;;5.80;79.98;102187.05;1778724;80;21736;-77
2022/01/25 07:28:10;;;;;;;10.93;4.92;;;;;;;5.83;79.99;102185.93;1777487;80;21583;-77
2022/01/25 07:30:36;;;;;;;10.28;4.95;;;;;;;5.85;80.09;102184.73;1778826;80;21584;-77
2022/01/25 07:33:05;;;;;;;6.72;4.22;;;;;;;5.88;80.04;102180.14;1778813;80;21649;-78
2022/01/25 07:35:36;;;;;;;7.15;4.70;;;;;;;5.90;80.03;102181.14;1752126;80;21105;-78
2022/01/25 07:38:09;;;;;;;6.75;4.30;;;;;;;5.91;79.98;102176.40;1778886;80;21750;-77
2022/01/25 07:40:36;;;;;;;8.50;4.95;;;;;;;5.93;80.02;102176.09;1778786;80;21105;-78
2022/01/25 07:43:03;;;;;;;10.15;5.28;;;;;;;5.95;79.97;102174.48;1779334;80;21116;-78
2022/01/25 07:45:34;;;;;;;10.05;5.30;;;;;;;5.99;80.02;102176.16;1778802;80;21254;-78
2022/01/25 07:47:59;;;;;;;11.12;5.47;;;;;;;6.03;80.00;102180.77;1778960;80;21019;-78
2022/01/25 07:50:26;;;;;;;11.93;6.37;;;;;;;6.07;79.90;102183.60;1778873;80;22477;-78
2022/01/25 07:52:55;;;;;;;9.88;6.65;;;;;;;6.09;79.86;102188.52;1778534;80;21074;-78
2022/01/25 07:55:21;;;;;;;8.80;6.45;;;;;;;6.09;79.79;102181.58;1778915;80;21520;-78
2022/01/25 07:57:50;;;;;;;8.25;5.85;;;;;;;6.13;79.78;102184.00;1778895;80;21095;-78
2022/01/25 08:00:17;;;;;;;9.60;5.58;;;;;;;6.15;79.78;102186.31;1779285;78;21061;-78
2022/01/25 08:02:47;;;;;;;6.85;5.12;;;;;;;6.20;79.77;102179.68;1729514;81;21883;-77
2022/01/25 08:05:18;;;;;;;7.35;4.83;;;;;;;6.24;79.73;102188.22;1761310;80;21211;-78
2022/01/25 08:07:45;;;;;;;6.22;4.17;;;;;;;6.26;79.60;102198.38;1761668;81;21065;-78
2022/01/25 08:10:11;;;;;;;6.47;4.42;;;;;;;6.28;79.55;102194.56;1761664;80;21099;-78
2022/01/25 08:12:38;;;;;;;6.55;4.58;;;;;;;6.32;79.57;102201.39;1761592;80;21089;-78
2022/01/25 08:15:06;;;;;;;7.22;4.65;;;;;;;6.37;79.55;102200.39;1761639;79;21747;-78
2022/01/25 08:17:33;;;;;;;7.50;4.72;;;;;;;6.41;79.56;102199.37;1761772;81;21112;-78
2022/01/25 08:20:00;;;;;;;8.58;5.15;;;;;;;6.46;79.46;102197.45;1761739;80;21049;-78
2022/01/25 08:22:27;;;;;;;6.75;4.40;;;;;;;6.47;79.41;102191.02;1761620;81;21127;-78
2022/01/25 08:24:55;;;;;;;8.38;4.45;;;;;;;6.51;79.41;102184.28;1761488;81;21045;-78
2022/01/25 08:27:23;;;;;;;8.33;4.40;;;;;;;6.55;79.37;102175.81;1761826;81;21763;-78
2022/01/25 08:29:51;;;;;;;8.73;4.28;;;;;;;6.59;79.30;102185.28;1761676;81;21108;-78
2022/01/25 08:32:18;;;;;;;5.05;3.72;;;;;;;6.60;79.28;102178.33;1762120;81;21049;-78
2022/01/25 08:34:45;;;;;;;6.15;4.40;;;;;;;6.63;79.22;102175.92;1761970;80;21173;-78
2022/01/25 08:37:14;;;;;;;7.10;4.30;;;;;;;6.70;79.25;102175.51;1761427;80;21057;-78
2022/01/25 08:39:40;;;;;;;9.05;4.42;;;;;;;6.76;79.21;102177.20;1761673;80;21743;-78
2022/01/25 08:42:08;;;;;;;6.25;3.98;;;;;;;6.83;79.21;102171.92;1761822;79;21049;-78
2022/01/25 08:44:36;;;;;;;7.60;4.53;;;;;;;6.89;79.09;102176.64;1761504;80;21162;-78
2022/01/25 08:47:03;;;;;;;6.83;4.17;;;;;;;6.91;78.99;102177.67;1761585;81;21571;-78
2022/01/25 08:49:30;;;;;;;6.87;4.17;;;;;;;6.90;78.84;102180.67;1761845;81;22170;-77
2022/01/25 08:51:58;;;;;;;7.25;4.50;;;;;;;6.90;78.81;102179.36;1761653;81;23161;-78
2022/01/25 08:54:25;;;;;;;5.17;4.15;;;;;;;6.91;78.87;102178.57;1761766;81;21108;-77
2022/01/25 08:56:53;;;;;;;9.03;4.17;;;;;;;6.85;78.77;102169.03;1761861;81;21431;-79
2022/01/25 08:59:20;;;;;;;7.30;4.65;;;;;;;6.95;78.84;102185.80;1761748;80;21587;-79
2022/01/25 09:01:47;;;;;;;7.28;4.40;;;;;;;6.98;78.87;102186.00;1761533;79;21622;-79
2022/01/25 09:04:14;;;;;;;8.05;4.17;;;;;;;6.97;78.74;102185.91;1761508;81;21819;-78
2022/01/25 09:06:41;;;;;;;8.30;5.00;;;;;;;6.96;78.78;102185.00;1761403;80;21057;-79
2022/01/25 09:09:09;;;;;;;7.00;4.70;;;;;;;7.00;78.90;102180.45;1761798;79;21128;-79
2022/01/25 09:11:37;;;;;;;8.03;4.60;;;;;;;7.10;78.99;102172.77;1761726;81;21637;-79
2022/01/25 09:14:04;;;;;;;9.65;4.90;;;;;;;7.19;78.93;102181.60;1761874;81;21076;-79
2022/01/25 09:16:30;;;;;;;8.63;4.85;;;;;;;7.29;78.82;102176.52;1761758;79;21886;-79
2022/01/25 09:18:57;;;;;;;7.47;4.70;;;;;;;7.31;78.53;102181.44;1752516;79;21037;-79
2022/01/25 09:21:23;;;;;;;10.30;5.53;;;;;;;7.33;78.47;102185.05;1729873;82;21099;-79
2022/01/25 09:23:50;;;;;;;7.72;4.58;;;;;;;7.34;78.43;102178.61;1761444;80;21132;-79
2022/01/25 09:26:17;;;;;;;10.03;6.62;;;;;;;7.37;78.43;102184.01;1761781;81;21077;-79
2022/01/25 09:28:44;;;;;;;16.15;11.65;;;;;;;7.40;78.30;102184.62;1783104;80;21931;-79
2022/01/25 09:31:11;;;;;;;11.57;7.75;;;;;;;7.39;78.26;102178.87;1783553;80;21206;-79
2022/01/25 09:33:39;;;;;;;8.40;5.10;;;;;;;7.38;78.20;102188.45;1777845;80;21030;-80
2022/01/25 09:36:06;;;;;;;11.48;8.50;;;;;;;7.47;78.46;102188.50;1778345;80;21053;-79
2022/01/25 09:38:32;;;;;;;10.25;6.50;;;;;;;7.56;78.32;102191.30;1778032;80;21081;-79
2022/01/25 09:40:59;;;;;;;7.28;5.15;;;;;;;7.59;78.08;102195.39;1778518;80;21838;-76
2022/01/25 09:43:27;;;;;;;7.55;4.72;;;;;;;7.66;78.17;102193.13;1778325;80;21057;-77
2022/01/25 09:45:54;;;;;;;6.28;4.70;;;;;;;7.70;78.19;102197.36;1778725;80;21065;-77
2022/01/25 09:48:21;;;;;;;9.70;5.83;;;;;;;7.79;78.13;102187.84;1778505;80;21185;-78
2022/01/25 09:50:48;;;;;;;7.55;5.15;;;;;;;7.87;77.97;102193.53;1778458;80;21080;-78
2022/01/25 09:53:14;;;;;;;8.70;5.03;;;;;;;7.90;77.79;102197.62;1778316;80;21763;-78
2022/01/25 09:55:42;;;;;;;7.75;4.67;;;;;;;7.88;77.65;102196.25;1778286;80;21109;-78
2022/01/25 09:58:10;;;;;;;6.50;4.22;;;;;;;7.85;77.62;102192.13;1778302;80;21070;-78
2022/01/25 10:00:37;;;;;;;7.15;4.37;;;;;;;7.86;77.54;102189.09;1778206;80;21049;-78
2022/01/25 10:03:15;;;;;;;9.73;4.92;;;;;;;7.91;77.78;102190.27;1787004;79;21575;-78
2022/01/25 10:05:42;;;;;;;8.73;5.15;;;;;;;7.94;77.72;102191.77;1786230;79;21830;-78
2022/01/25 10:08:26;;;;;;;9.65;4.92;;;;;;;7.96;77.58;102193.66;1787727;79;21096;-78
2022/01/25 10:11:00;;;;;;;7.65;5.22;;;;;;;7.92;77.45;102186.44;1765742;81;21087;-78
2022/01/25 10:13:31;;;;;;;;;;;;;;;7.90;77.54;102177.58;1767722;79;21171;-77
2022/01/25 10:16:18;;;;;;;11.73;5.75;;;;;;;7.93;77.68;102186.02;1706331;82;20147;-78
2022/01/25 10:18:54;;;;;;;9.40;4.90;;;;;;;7.97;77.66;102174.47;1733445;82;21747;-77
2022/01/25 10:21:36;;;;;;;8.05;4.75;;;;;;;7.97;77.47;102176.20;1733565;81;21071;-77
2022/01/25 10:24:14;;;;;;;;;;;;;;;7.92;77.31;102177.64;1735422;82;21554;-78
2022/01/25 10:27:02;;;;;;;9.80;5.00;;;;;;;7.88;77.40;102184.84;1733377;82;20507;-78
2022/01/25 10:29:35;;;;;;;8.63;4.78;;;;;;;7.90;77.51;102184.13;1781101;80;21606;-78
2022/01/25 10:32:13;;;;;;;9.58;5.03;;;;;;;7.93;77.62;102165.94;1765341;81;21960;-78
2022/01/25 10:34:45;;;;;;;10.70;5.47;;;;;;;8.01;77.72;102170.73;1765744;79;21376;-77
2022/01/25 10:37:15;;;;;;;8.78;6.12;;;;;;;8.19;77.95;102157.38;1765430;81;21647;-78
2022/01/25 10:39:47;;;;;;;9.48;5.95;;;;;;;8.25;77.53;102158.13;1765209;81;21162;-78
2022/01/25 10:42:23;;;;;;;9.53;6.50;;;;;;;8.18;77.29;102152.55;1765460;81;21552;-78
2022/01/25 10:44:58;;;;;;;10.30;6.22;;;;;;;8.19;76.99;102157.38;1765454;81;21770;-78
2022/01/25 10:47:50;;;;;;;9.03;5.92;;;;;;;8.09;76.85;102149.77;1765235;81;21159;-78
2022/01/25 10:50:34;;;;;;;6.12;3.77;;;;;;;7.91;76.71;102157.50;1764981;81;21615;-78
2022/01/25 10:53:07;;;;;;;7.37;4.10;;;;;;;7.71;76.38;102157.62;1765270;79;21412;-78
2022/01/25 10:55:42;;;;;;;6.72;4.08;;;;;;;7.54;76.74;102157.52;1765112;81;21070;-78
2022/01/25 10:58:09;;;;;;;10.28;4.42;;;;;;;7.52;76.97;102152.59;1764935;81;21799;-78
2022/01/25 11:00:41;;;;;;;10.68;4.47;;;;;;;7.52;77.19;102151.28;1765260;81;21350;-78
2022/01/25 11:03:07;;;;;;;8.13;3.92;;;;;;;7.45;77.29;102133.42;1762382;79;21080;-78
2022/01/25 11:05:38;;;;;;;7.67;3.85;;;;;;;7.53;77.28;102141.32;1761111;80;21092;-78
2022/01/25 11:08:16;;;;;;;5.47;3.62;;;;;;;7.58;77.33;102149.44;1760945;79;21076;-78
2022/01/25 11:10:48;;;;;;;7.05;3.62;;;;;;;7.50;76.85;102145.47;1761467;80;21767;-77
2022/01/25 11:13:33;;;;;;;10.43;3.98;;;;;;;7.47;76.82;102137.03;1761472;80;21638;-77
2022/01/25 11:15:42;;;;;;;5.80;4.10;;;;;;;7.49;76.78;102141.95;1760407;80;21586;-77
2022/01/25 11:18:09;;;;;;;5.60;3.83;;;;;;;7.45;76.65;102137.34;1761442;81;21068;-78
2022/01/25 11:20:35;;;;;;;5.05;3.65;;;;;;;7.44;76.69;102145.11;1705169;81;21079;-77
2022/01/25 11:23:02;;;;;;;4.55;3.40;;;;;;;7.43;76.73;102147.22;1761510;80;21734;-78
2022/01/25 11:25:28;;;;;;;5.83;3.67;;;;;;;7.48;76.83;102151.92;1761479;80;21044;-78
2022/01/25 11:27:57;;;;;;;5.10;3.52;;;;;;;7.57;76.88;102149.86;1761710;80;21112;-78
2022/01/25 11:30:23;;;;;;;7.50;4.00;;;;;;;7.71;76.78;102148.45;1762269;81;21274;-79
2022/01/25 11:32:50;;;;;;;6.22;4.08;;;;;;;7.83;76.83;102146.57;1761397;81;21103;-78
2022/01/25 11:35:23;;;;;;;8.38;4.15;;;;;;;8.02;76.85;102146.33;1761442;81;21685;-78
2022/01/25 11:37:52;;;;;;;7.78;3.62;;;;;;;8.11;76.15;102145.13;1761003;80;21056;-78
2022/01/25 11:40:35;;;;;;;7.10;3.77;;;;;;;8.10;75.77;102145.94;1761698;81;21037;-77
2022/01/25 11:43:08;;;;;;;6.05;4.10;;;;;;;8.12;75.74;102142.09;1729060;80;21064;-78
2022/01/25 11:45:37;;;;;;;8.63;4.53;;;;;;;8.15;75.68;102138.34;1760912;80;21060;-77
2022/01/25 11:48:04;;;;;;;7.17;4.50;;;;;;;8.13;75.45;102133.02;1761736;81;22556;-77
2022/01/25 11:50:37;;;;;;;7.87;4.03;;;;;;;8.22;75.70;102130.41;1761513;80;21060;-78
2022/01/25 11:53:14;;;;;;;9.08;3.98;;;;;;;8.25;75.26;102126.66;1761140;80;21056;-78
2022/01/25 11:55:54;;;;;;;7.60;4.12;;;;;;;8.21;75.16;102124.27;1761548;81;21139;-78
2022/01/25 11:58:29;;;;;;;5.97;3.87;;;;;;;8.20;75.15;102121.55;1755271;80;21095;-77
2022/01/25 12:01:00;;;;;;;7.70;4.08;;;;;;;8.11;75.03;102120.64;1761731;80;22573;-79
2022/01/25 12:03:35;;;;;;;10.78;5.50;;;;;;;8.09;75.11;102124.48;1761412;79;21040;-79
2022/01/25 12:06:13;;;;;;;15.40;8.85;;;;;;;8.03;74.89;102116.23;1761158;80;21068;-79
2022/01/25 12:11:34;;;;;;;9.40;5.37;;;;;;;7.95;74.90;102118.84;1761749;81;21040;-77
2022/01/25 12:14:26;;;;;;;11.10;6.03;;;;;;;7.93;75.06;102121.78;1761123;80;21768;-77
2022/01/25 12:17:06;;;;;;;9.33;5.87;;;;;;;7.94;74.97;102120.98;1761351;80;21064;-77
2022/01/25 12:20:00;;;;;;;12.80;4.67;;;;;;;7.93;74.83;102126.61;1761066;81;21063;-77
2022/01/25 12:25:37;;;;;;;8.30;4.45;;;;;;;7.95;75.01;102120.16;1761406;81;21067;-80
2022/01/25 12:28:00;;;;;;;9.73;4.90;;;;;;;8.01;74.79;102124.84;1761275;80;22468;-77
2022/01/25 12:30:31;;;;;;;23.57;16.52;;;;;;;8.03;74.89;102123.20;1761801;81;21060;-77
2022/01/25 12:33:03;;;;;;;9.73;5.55;;;;;;;8.04;74.86;102128.55;1761530;80;21594;-77
2022/01/25 12:35:49;;;;;;;9.40;4.72;;;;;;;8.02;74.59;102128.87;1761583;81;21595;-77
2022/01/25 12:38:41;;;;;;;9.38;4.70;;;;;;;7.95;74.30;102138.50;1729494;81;21109;-77
2022/01/25 12:41:12;;;;;;;10.00;5.60;;;;;;;7.85;74.38;102133.55;1761962;80;21758;-78
2022/01/25 12:43:51;;;;;;;9.18;5.42;;;;;;;7.76;74.63;102137.42;1761643;80;21065;-78
2022/01/25 12:46:21;;;;;;;9.98;5.40;;;;;;;7.74;74.93;102135.55;1761784;81;21542;-78
2022/01/25 12:48:55;;;;;;;9.28;4.53;;;;;;;7.66;74.80;102138.09;1761481;81;21293;-77
2022/01/25 12:51:27;;;;;;;10.88;4.75;;;;;;;7.53;74.80;102130.84;1761696;81;21403;-78
2022/01/25 12:53:55;;;;;;;10.98;4.62;;;;;;;7.47;75.25;102125.63;1761198;81;21319;-77
2022/01/25 12:56:27;;;;;;;9.63;4.55;;;;;;;7.44;75.23;102130.28;1761883;80;21057;-78
2022/01/25 12:58:58;;;;;;;7.67;4.35;;;;;;;7.33;75.22;102122.19;1761353;80;21069;-78
2022/01/25 13:01:26;;;;;;;7.83;3.87;;;;;;;7.23;75.31;102134.25;1761903;79;21332;-79
2022/01/25 13:03:57;;;;;;;8.38;3.90;;;;;;;7.02;75.19;102130.81;1771760;79;21171;-79
2022/01/25 13:06:29;;;;;;;11.28;4.03;;;;;;;6.81;75.42;102136.91;1765094;81;21609;-79
2022/01/25 13:09:16;;;;;;;7.85;3.77;;;;;;;6.64;75.66;102136.27;1765122;81;21070;-79
2022/01/25 13:17:20;;;;;;;13.32;3.72;;;;;;;6.51;76.44;102135.47;1765016;81;21987;-79
2022/01/25 13:19:56;;;;;;;5.97;3.70;;;;;;;6.52;76.62;102137.30;1765317;81;21918;-79
2022/01/25 13:22:33;;;;;;;10.93;4.08;;;;;;;6.54;76.66;102138.70;1765156;80;21392;-78
2022/01/25 13:27:32;;;;;;;12.05;4.20;;;;;;;6.66;76.98;102142.49;1765304;81;21064;-77